createdAt,value
2023-04-02T00:00:14.695Z,100.00
2023-04-02T00:02:48.380Z,100.00
2023-04-02T00:05:20.990Z,100.00
2023-04-02T00:07:49.093Z,100.00
2023-04-02T00:10:36.923Z,100.00
2023-04-02T00:13:09.257Z,100.00
2023-04-02T00:15:37.337Z,100.00
2023-04-02T00:18:05.018Z,100.00
2023-04-02T00:20:38.477Z,100.00
2023-04-02T00:23:06.311Z,100.00
2023-04-02T00:25:42.779Z,100.00
2023-04-02T00:28:14.970Z,100.00
2023-04-02T00:30:53.791Z,100.00
2023-04-02T00:33:23.727Z,100.00
2023-04-02T00:35:52.529Z,100.00
2023-04-02T00:38:31.717Z,100.00
2023-04-02T00:41:07.252Z,100.00
2023-04-02T00:43:38.405Z,100.00
2023-04-02T00:46:14.048Z,100.00
2023-04-02T00:48:52.690Z,100.00
2023-04-02T00:51:44.464Z,100.00
2023-04-02T00:54:16.197Z,100.00
2023-04-02T00:56:45.262Z,100.00
2023-04-02T00:59:27.454Z,100.00
2023-04-02T01:02:20.025Z,100.00
2023-04-02T01:05:15.678Z,100.00
2023-04-02T01:08:08.798Z,100.00
2023-04-02T01:10:58.741Z,100.00
2023-04-02T01:13:35.536Z,100.00
2023-04-02T01:16:11.980Z,100.00
2023-04-02T01:18:53.615Z,100.00
2023-04-02T01:21:52.855Z,100.00
2023-04-02T01:24:20.861Z,100.00
2023-04-02T01:27:14.616Z,100.00
2023-04-02T01:29:46.661Z,100.00
2023-04-02T01:32:16.967Z,100.00
2023-04-02T01:34:46.505Z,100.00
2023-04-02T01:37:28.659Z,100.00
2023-04-02T01:40:25.726Z,100.00
2023-04-02T01:43:04.464Z,100.00
2023-04-02T01:45:31.155Z,100.00
2023-04-02T01:47:58.846Z,100.00
2023-04-02T01:50:37.244Z,100.00
2023-04-02T01:53:07.268Z,100.00
2023-04-02T01:55:42.554Z,100.00
2023-04-02T01:58:11.463Z,100.00
2023-04-02T02:00:47.195Z,100.00
2023-04-02T02:03:14.013Z,100.00
2023-04-02T02:05:40.963Z,100.00
2023-04-02T02:08:22.740Z,100.00
2023-04-02T02:10:49.295Z,100.00
2023-04-02T02:13:16.333Z,100.00
2023-04-02T02:15:43.979Z,100.00
2023-04-02T02:18:13.165Z,100.00
2023-04-02T02:20:40.026Z,100.00
2023-04-02T02:23:07.241Z,100.00
2023-04-02T02:25:36.347Z,100.00
2023-04-02T02:28:02.873Z,100.00
2023-04-02T02:30:41.884Z,100.00
2023-04-02T02:33:21.704Z,100.00
2023-04-02T02:36:05.467Z,100.00
2023-04-02T02:38:34.665Z,100.00
2023-04-02T02:41:07.608Z,100.00
2023-04-02T02:43:38.874Z,100.00
2023-04-02T02:46:07.819Z,100.00
2023-04-02T02:48:37.417Z,100.00
2023-04-02T02:51:08.774Z,100.00
2023-04-02T02:53:46.423Z,100.00
2023-04-02T02:56:13.591Z,100.00
2023-04-02T02:58:40.934Z,100.00
2023-04-02T03:01:07.868Z,100.00
2023-04-02T03:03:35.158Z,100.00
2023-04-02T03:06:05.383Z,100.00
2023-04-02T03:08:41.715Z,100.00
2023-04-02T03:11:19.691Z,100.00
2023-04-02T03:13:50.768Z,99.85
2023-04-02T03:16:23.188Z,99.92
2023-04-02T03:18:56.709Z,99.67
2023-04-02T03:21:42.142Z,99.86
2023-04-02T03:24:15.936Z,100.00
2023-04-02T03:26:50.112Z,100.00
2023-04-02T03:29:22.444Z,100.00
2023-04-02T03:31:55.061Z,100.00
2023-04-02T03:34:28.027Z,100.00
2023-04-02T03:36:59.665Z,100.00
2023-04-02T03:39:35.886Z,100.00
2023-04-02T03:42:22.894Z,100.00
2023-04-02T03:45:16.833Z,100.00
2023-04-02T03:47:51.495Z,100.00
2023-04-02T03:50:33.027Z,100.00
2023-04-02T03:53:01.521Z,99.75
2023-04-02T03:55:35.356Z,100.00
2023-04-02T03:58:40.984Z,99.99
2023-04-02T04:01:31.935Z,100.00
2023-04-02T04:04:06.634Z,99.83
2023-04-02T04:06:36.156Z,100.00
2023-04-02T04:09:16.233Z,99.68
2023-04-02T04:11:52.292Z,100.00
2023-04-02T04:14:28.052Z,100.00
2023-04-02T04:17:29.877Z,99.98
2023-04-02T04:20:36.606Z,100.00
2023-04-02T04:23:15.865Z,100.00
2023-04-02T04:25:42.377Z,100.00
2023-04-02T04:28:32.746Z,100.00
2023-04-02T04:31:25.967Z,100.00
2023-04-02T04:34:05.062Z,100.00
2023-04-02T04:36:47.818Z,100.00
2023-04-02T04:39:21.658Z,100.00
2023-04-02T04:41:49.623Z,100.00
2023-04-02T04:44:24.974Z,100.00
2023-04-02T04:47:11.553Z,100.00
2023-04-02T04:49:53.901Z,99.94
2023-04-02T04:52:36.211Z,99.49
2023-04-02T04:55:04.147Z,99.99
2023-04-02T04:57:32.856Z,99.75
2023-04-02T05:00:12.969Z,99.96
2023-04-02T05:02:52.690Z,100.00
2023-04-02T05:05:26.254Z,99.57
2023-04-02T05:07:59.854Z,99.32
2023-04-02T05:10:49.260Z,98.86
2023-04-02T05:13:27.780Z,99.43
2023-04-02T05:16:21.469Z,99.57
2023-04-02T05:18:56.577Z,99.58
2023-04-02T05:22:01.436Z,99.18
2023-04-02T05:24:52.423Z,98.99
2023-04-02T05:27:27.248Z,98.93
2023-04-02T05:30:03.552Z,99.18
2023-04-02T05:32:40.816Z,98.70
2023-04-02T05:35:14.423Z,98.96
2023-04-02T05:37:41.129Z,98.80
2023-04-02T05:40:26.977Z,99.31
2023-04-02T05:42:55.631Z,98.80
2023-04-02T05:45:32.431Z,99.01
2023-04-02T05:48:03.681Z,98.67
2023-04-02T05:50:37.197Z,98.50
2023-04-02T05:53:14.435Z,98.69
2023-04-02T05:55:48.905Z,98.44
2023-04-02T05:58:35.309Z,98.60
2023-04-02T06:01:33.460Z,98.46
2023-04-02T06:04:11.490Z,98.72
2023-04-02T06:06:41.665Z,98.89
2023-04-02T06:09:14.104Z,98.78
2023-04-02T06:11:48.097Z,99.27
2023-04-02T06:14:16.847Z,98.82
2023-04-02T06:16:46.020Z,99.29
2023-04-02T06:19:22.655Z,99.28
2023-04-02T06:21:52.484Z,100.00
2023-04-02T06:24:24.547Z,99.89
2023-04-02T06:26:57.550Z,100.00
2023-04-02T06:29:39.653Z,100.00
2023-04-02T06:32:11.545Z,100.00
2023-04-02T06:34:42.389Z,100.00
2023-04-02T06:37:35.526Z,100.00
2023-04-02T06:40:04.848Z,100.00
2023-04-02T06:42:35.967Z,100.00
2023-04-02T06:45:03.558Z,100.00
2023-04-02T06:47:44.457Z,100.00
2023-04-02T06:50:42.784Z,100.00
2023-04-02T06:53:27.730Z,100.00
2023-04-02T06:56:38.128Z,100.00
2023-04-02T06:59:04.779Z,100.00
2023-04-02T07:01:37.085Z,100.00
2023-04-02T07:04:04.154Z,100.00
2023-04-02T07:06:30.973Z,99.99
2023-04-02T07:08:57.410Z,100.00
2023-04-02T07:11:24.064Z,100.00
2023-04-02T07:13:50.852Z,99.46
2023-04-02T07:16:20.709Z,99.19
2023-04-02T07:18:48.207Z,99.11
2023-04-02T07:21:14.973Z,99.07
2023-04-02T07:23:41.902Z,98.75
2023-04-02T07:26:12.887Z,99.29
2023-04-02T07:28:39.405Z,98.75
2023-04-02T07:31:19.123Z,98.66
2023-04-02T07:33:46.341Z,98.43
2023-04-02T07:36:19.075Z,98.91
2023-04-02T07:38:45.726Z,97.67
2023-04-02T07:41:12.982Z,98.10
2023-04-02T07:43:41.174Z,97.96
2023-04-02T07:46:09.630Z,97.98
2023-04-02T07:48:36.573Z,97.01
2023-04-02T07:51:03.403Z,97.34
2023-04-02T07:53:36.718Z,96.61
2023-04-02T07:56:04.588Z,97.07
2023-04-02T07:58:32.918Z,96.95
2023-04-02T08:01:01.613Z,96.44
2023-04-02T08:03:29.025Z,96.50
2023-04-02T08:05:58.082Z,96.44
2023-04-02T08:08:25.854Z,95.57
2023-04-02T08:10:52.355Z,95.04
2023-04-02T08:13:19.289Z,95.19
2023-04-02T08:15:45.821Z,95.04
2023-04-02T08:18:12.268Z,95.42
2023-04-02T08:20:39.498Z,95.04
2023-04-02T08:23:15.359Z,94.42
2023-04-02T08:25:42.016Z,94.32
2023-04-02T08:28:08.777Z,93.87
2023-04-02T08:30:35.847Z,94.00
2023-04-02T08:33:02.364Z,93.79
2023-04-02T08:35:28.866Z,92.93
2023-04-02T08:37:55.444Z,92.88
2023-04-02T08:40:50.489Z,92.85
2023-04-02T08:43:16.940Z,93.08
2023-04-02T08:46:22.778Z,93.14
2023-04-02T08:48:55.574Z,92.68
2023-04-02T08:51:29.107Z,92.54
2023-04-02T08:54:09.468Z,92.75
2023-04-02T08:57:27.298Z,92.60
2023-04-02T09:00:10.547Z,91.86
2023-04-02T09:02:45.945Z,91.80
2023-04-02T09:05:26.481Z,91.79
2023-04-02T09:07:56.375Z,91.68
2023-04-02T09:10:33.653Z,91.64
2023-04-02T09:13:01.477Z,90.72
2023-04-02T09:15:34.689Z,90.56
2023-04-02T09:18:16.734Z,90.83
2023-04-02T09:20:44.462Z,90.57
2023-04-02T09:23:22.511Z,89.78
2023-04-02T09:26:03.353Z,89.42
2023-04-02T09:28:31.071Z,89.24
2023-04-02T09:31:03.325Z,89.22
2023-04-02T09:33:51.031Z,89.34
2023-04-02T09:36:34.483Z,89.28
2023-04-02T09:39:27.156Z,87.96
2023-04-02T09:42:05.148Z,87.77
2023-04-02T09:44:33.257Z,88.06
2023-04-02T09:47:05.804Z,86.71
2023-04-02T09:49:38.448Z,86.96
2023-04-02T09:52:26.583Z,86.96
2023-04-02T09:55:22.340Z,86.55
2023-04-02T09:57:50.640Z,86.56
2023-04-02T10:00:39.703Z,86.93
2023-04-02T10:03:27.870Z,87.43
2023-04-02T10:06:15.854Z,86.78
2023-04-02T10:08:44.712Z,86.49
2023-04-02T10:11:13.836Z,86.99
2023-04-02T10:13:53.377Z,85.84
2023-04-02T10:16:37.120Z,85.31
2023-04-02T10:19:29.470Z,85.16
2023-04-02T10:21:57.500Z,84.88
2023-04-02T10:24:27.646Z,85.26
2023-04-02T10:27:17.056Z,83.79
2023-04-02T10:30:11.593Z,84.88
2023-04-02T10:33:21.114Z,84.51
2023-04-02T10:35:53.387Z,84.12
2023-04-02T10:38:38.753Z,85.18
2023-04-02T10:41:26.881Z,84.21
2023-04-02T10:44:19.589Z,82.37
2023-04-02T10:47:03.469Z,83.23
2023-04-02T10:49:43.941Z,82.46
2023-04-02T10:52:28.997Z,82.62
2023-04-02T10:54:59.077Z,82.31
2023-04-02T10:57:38.738Z,79.83
2023-04-02T11:00:11.457Z,80.89
2023-04-02T11:02:41.274Z,80.03
2023-04-02T11:05:21.969Z,80.47
2023-04-02T11:08:11.136Z,80.94
2023-04-02T11:10:44.596Z,81.27
2023-04-02T11:13:13.790Z,82.25
2023-04-02T11:15:40.696Z,80.33
2023-04-02T11:18:07.437Z,81.30
2023-04-02T11:21:04.428Z,81.06
2023-04-02T11:23:38.476Z,82.16
2023-04-02T11:26:33.434Z,80.66
2023-04-02T11:29:24.602Z,78.39
2023-04-02T11:32:12.165Z,79.21
2023-04-02T11:34:41.428Z,80.00
2023-04-02T11:37:10.888Z,79.48
2023-04-02T11:39:56.792Z,78.57
2023-04-02T11:42:32.425Z,79.36
2023-04-02T11:45:24.592Z,79.43
2023-04-02T11:48:00.057Z,77.77
2023-04-02T11:50:38.104Z,77.85
2023-04-02T11:53:10.520Z,78.00
2023-04-02T11:55:39.671Z,78.59
2023-04-02T11:58:26.374Z,78.98
2023-04-02T12:01:32.714Z,78.52
2023-04-02T12:04:26.609Z,78.03
2023-04-02T12:06:59.894Z,78.38
2023-04-02T12:09:31.537Z,79.04
2023-04-02T12:12:01.973Z,78.70
2023-04-02T12:14:47.076Z,78.82
2023-04-02T12:17:31.524Z,77.37
2023-04-02T12:20:09.549Z,77.70
2023-04-02T12:22:40.943Z,77.74
2023-04-02T12:25:31.595Z,77.99
2023-04-02T12:28:10.182Z,78.13
2023-04-02T12:30:41.034Z,76.44
2023-04-02T12:33:19.413Z,76.81
2023-04-02T12:35:48.008Z,76.24
2023-04-02T12:38:21.578Z,75.69
2023-04-02T12:41:24.536Z,75.20
2023-04-02T12:44:02.687Z,74.79
2023-04-02T12:46:35.204Z,76.73
2023-04-02T12:49:06.714Z,75.38
2023-04-02T12:51:36.313Z,76.14
2023-04-02T12:54:03.257Z,77.08
2023-04-02T12:56:29.805Z,76.69
2023-04-02T12:58:59.162Z,76.43
2023-04-02T13:01:28.405Z,76.75
2023-04-02T13:04:12.249Z,76.06
2023-04-02T13:06:41.105Z,76.10
2023-04-02T13:09:36.227Z,74.52
2023-04-02T13:12:03.175Z,75.04
2023-04-02T13:14:30.814Z,74.13
2023-04-02T13:16:57.369Z,74.15
2023-04-02T13:19:26.125Z,74.98
2023-04-02T13:21:54.390Z,76.07
2023-04-02T13:24:26.720Z,74.27
2023-04-02T13:26:58.958Z,74.42
2023-04-02T13:29:36.096Z,74.07
2023-04-02T13:32:11.660Z,74.62
2023-04-02T13:34:38.144Z,74.12
2023-04-02T13:37:04.569Z,73.97
2023-04-02T13:39:31.051Z,74.50
2023-04-02T13:42:03.421Z,73.55
2023-04-02T13:44:34.966Z,74.15
2023-04-02T13:47:01.770Z,73.95
2023-04-02T13:49:28.525Z,73.64
2023-04-02T13:52:00.469Z,73.73
2023-04-02T13:54:43.329Z,73.75
2023-04-02T13:57:10.653Z,75.37
2023-04-02T13:59:37.190Z,73.99
2023-04-02T14:02:12.772Z,74.12
2023-04-02T14:04:45.064Z,73.46
2023-04-02T14:07:14.493Z,73.56
2023-04-02T14:09:50.810Z,72.93
2023-04-02T14:12:33.505Z,73.32
2023-04-02T14:15:31.044Z,73.24
2023-04-02T14:18:43.112Z,72.53
2023-04-02T14:21:17.645Z,72.74
2023-04-02T14:23:55.985Z,73.09
2023-04-02T14:26:47.324Z,72.82
2023-04-02T14:29:24.169Z,74.42
2023-04-02T14:31:59.828Z,75.17
2023-04-02T14:34:32.150Z,73.54
2023-04-02T14:37:23.058Z,71.41
2023-04-02T14:40:20.570Z,72.84
2023-04-02T14:43:16.970Z,72.20
2023-04-02T14:46:05.187Z,72.30
2023-04-02T14:48:56.558Z,71.59
2023-04-02T14:51:47.254Z,70.93
2023-04-02T14:54:37.688Z,71.21
2023-04-02T14:57:19.657Z,71.02
2023-04-02T15:00:05.401Z,70.67
2023-04-02T15:02:49.072Z,70.72
2023-04-02T15:05:36.093Z,71.35
2023-04-02T15:08:12.717Z,71.34
2023-04-02T15:10:51.902Z,71.76
2023-04-02T15:13:22.827Z,72.37
2023-04-02T15:15:56.373Z,71.01
2023-04-02T15:18:23.207Z,70.02
2023-04-02T15:21:22.810Z,70.22
2023-04-02T15:24:09.497Z,70.74
2023-04-02T15:26:51.186Z,70.50
2023-04-02T15:29:36.369Z,69.04
2023-04-02T15:32:34.535Z,69.33
2023-04-02T15:35:23.109Z,69.39
2023-04-02T15:38:17.641Z,68.03
2023-04-02T15:40:56.620Z,66.51
2023-04-02T15:43:41.437Z,67.04
2023-04-02T15:46:21.447Z,65.32
2023-04-02T15:49:27.261Z,64.61
2023-04-02T15:52:08.339Z,63.09
2023-04-02T15:54:43.699Z,63.18
2023-04-02T15:57:53.206Z,62.52
2023-04-02T16:00:32.093Z,62.28
2023-04-02T16:03:20.899Z,62.48
2023-04-02T16:06:16.879Z,62.03
2023-04-02T16:08:57.023Z,62.80
2023-04-02T16:11:25.768Z,64.49
2023-04-02T16:14:01.036Z,63.14
2023-04-02T16:16:32.703Z,63.63
2023-04-02T16:19:02.594Z,64.39
2023-04-02T16:21:38.457Z,64.44
2023-04-02T16:24:14.227Z,64.85
2023-04-02T16:26:40.636Z,64.25
2023-04-02T16:29:22.405Z,65.26
2023-04-02T16:31:58.024Z,64.84
2023-04-02T16:35:15.218Z,65.23
2023-04-02T16:37:53.708Z,65.24
2023-04-02T16:40:38.332Z,65.35
2023-04-02T16:43:04.999Z,65.58
2023-04-02T16:46:06.556Z,65.47
2023-04-02T16:48:44.265Z,66.59
2023-04-02T16:51:21.425Z,65.60
2023-04-02T16:54:01.556Z,66.07
2023-04-02T16:56:47.676Z,65.61
2023-04-02T16:59:17.089Z,65.23
2023-04-02T17:01:49.565Z,65.12
2023-04-02T17:05:01.978Z,63.90
2023-04-02T17:07:40.662Z,64.71
2023-04-02T17:10:26.286Z,65.18
2023-04-02T17:12:58.624Z,65.58
2023-04-02T17:15:39.071Z,64.94
2023-04-02T17:18:32.910Z,64.94
2023-04-02T17:21:05.555Z,65.46
2023-04-02T17:23:54.857Z,65.43
2023-04-02T17:26:26.980Z,65.05
2023-04-02T17:28:54.796Z,65.36
2023-04-02T17:31:27.229Z,66.50
2023-04-02T17:33:53.700Z,67.74
2023-04-02T17:36:32.845Z,67.29
2023-04-02T17:39:18.018Z,65.65
2023-04-02T17:42:10.314Z,65.88
2023-04-02T17:44:58.736Z,65.62
2023-04-02T17:47:47.160Z,65.61
2023-04-02T17:50:46.160Z,66.05
2023-04-02T17:53:28.292Z,66.39
2023-04-02T17:56:02.596Z,66.15
2023-04-02T17:58:55.492Z,66.26
2023-04-02T18:01:40.637Z,66.03
2023-04-02T18:04:27.515Z,66.70
2023-04-02T18:07:02.863Z,66.95
2023-04-02T18:09:40.012Z,66.54
2023-04-02T18:12:27.994Z,66.99
2023-04-02T18:15:09.263Z,67.86
2023-04-02T18:18:06.357Z,67.75
2023-04-02T18:20:43.158Z,67.84
2023-04-02T18:23:21.471Z,68.69
2023-04-02T18:26:06.301Z,67.59
2023-04-02T18:28:45.754Z,67.96
2023-04-02T18:31:32.257Z,68.21
2023-04-02T18:34:16.276Z,68.37
2023-04-02T18:37:17.415Z,67.97
2023-04-02T18:40:12.982Z,67.25
2023-04-02T18:42:42.339Z,67.37
2023-04-02T18:45:24.831Z,66.85
2023-04-02T18:48:15.959Z,67.33
2023-04-02T18:50:46.769Z,65.76
2023-04-02T18:53:24.876Z,65.65
2023-04-02T18:55:58.042Z,65.90
2023-04-02T18:58:46.291Z,65.61
2023-04-02T19:01:18.037Z,66.12
2023-04-02T19:03:51.050Z,65.97
2023-04-02T19:06:35.036Z,66.33
2023-04-02T19:09:07.953Z,67.23
2023-04-02T19:11:34.427Z,66.80
2023-04-02T19:14:03.239Z,66.93
2023-04-02T19:17:08.102Z,67.34
2023-04-02T19:19:46.554Z,67.20
2023-04-02T19:22:30.042Z,67.61
2023-04-02T19:25:18.296Z,67.71
2023-04-02T19:27:59.996Z,67.55
2023-04-02T19:30:26.406Z,68.60
2023-04-02T19:33:32.670Z,68.22
2023-04-02T19:36:09.313Z,68.89
2023-04-02T19:39:13.176Z,68.55
2023-04-02T19:41:48.383Z,69.33
2023-04-02T19:44:16.319Z,69.80
2023-04-02T19:46:43.454Z,70.25
2023-04-02T19:49:16.841Z,69.69
2023-04-02T19:51:43.825Z,70.49
2023-04-02T19:54:10.409Z,69.95
2023-04-02T19:56:36.867Z,70.10
2023-04-02T19:59:17.010Z,71.30
2023-04-02T20:01:44.352Z,70.83
2023-04-02T20:04:10.990Z,71.14
2023-04-02T20:06:37.753Z,71.32
2023-04-02T20:09:04.398Z,70.82
2023-04-02T20:11:31.029Z,71.71
2023-04-02T20:13:57.536Z,71.95
2023-04-02T20:16:24.130Z,71.53
2023-04-02T20:18:50.943Z,71.85
2023-04-02T20:21:17.531Z,72.05
2023-04-02T20:23:44.228Z,72.11
2023-04-02T20:26:12.650Z,72.26
2023-04-02T20:28:39.580Z,72.41
2023-04-02T20:31:14.779Z,72.11
2023-04-02T20:33:42.147Z,72.57
2023-04-02T20:36:11.462Z,72.75
2023-04-02T20:38:38.298Z,72.58
2023-04-02T20:41:07.254Z,72.82
2023-04-02T20:43:34.516Z,73.04
2023-04-02T20:46:06.048Z,72.87
2023-04-02T20:48:33.769Z,72.71
2023-04-02T20:51:02.248Z,73.17
2023-04-02T20:53:31.042Z,73.19
2023-04-02T20:56:09.148Z,72.96
2023-04-02T20:58:37.287Z,73.49
2023-04-02T21:01:09.348Z,73.48
2023-04-02T21:03:35.936Z,73.45
2023-04-02T21:06:02.672Z,73.41
2023-04-02T21:08:29.191Z,73.35
2023-04-02T21:11:02.649Z,73.20
2023-04-02T21:13:33.237Z,73.41
2023-04-02T21:16:00.124Z,73.88
2023-04-02T21:18:26.801Z,73.65
2023-04-02T21:21:05.975Z,74.07
2023-04-02T21:23:33.383Z,74.06
2023-04-02T21:26:06.100Z,74.33
2023-04-02T21:28:34.549Z,74.11
2023-04-02T21:31:10.582Z,73.91
2023-04-02T21:33:46.313Z,74.26
2023-04-02T21:36:16.107Z,74.32
2023-04-02T21:38:44.670Z,74.13
2023-04-02T21:41:19.666Z,74.33
2023-04-02T21:43:48.264Z,74.59
2023-04-02T21:46:17.004Z,74.56
2023-04-02T21:48:44.241Z,74.57
2023-04-02T21:51:16.154Z,74.30
2023-04-02T21:53:43.397Z,74.72
2023-04-02T21:56:13.702Z,75.15
2023-04-02T21:58:40.753Z,75.06
2023-04-02T22:01:11.422Z,75.68
2023-04-02T22:03:43.855Z,76.20
2023-04-02T22:06:19.910Z,76.26
2023-04-02T22:08:50.155Z,76.58
2023-04-02T22:11:20.130Z,76.86
2023-04-02T22:13:47.943Z,77.14
2023-04-02T22:16:20.614Z,77.23
2023-04-02T22:18:48.477Z,77.39
2023-04-02T22:21:15.902Z,77.57
2023-04-02T22:23:43.416Z,77.98
2023-04-02T22:26:10.988Z,78.25
2023-04-02T22:28:38.158Z,78.40
2023-04-02T22:31:11.897Z,78.43
2023-04-02T22:33:38.932Z,78.81
2023-04-02T22:36:06.415Z,78.82
2023-04-02T22:38:34.188Z,78.70
2023-04-02T22:41:08.434Z,79.09
2023-04-02T22:43:36.082Z,78.91
2023-04-02T22:46:06.778Z,79.02
2023-04-02T22:48:33.838Z,79.21
2023-04-02T22:51:00.637Z,79.31
2023-04-02T22:53:27.831Z,79.56
2023-04-02T22:55:54.611Z,80.50
2023-04-02T22:58:21.168Z,80.39
2023-04-02T23:00:48.216Z,80.49
2023-04-02T23:03:14.775Z,80.34
2023-04-02T23:05:42.530Z,80.52
2023-04-02T23:08:09.312Z,80.95
2023-04-02T23:10:36.714Z,80.91
2023-04-02T23:13:03.733Z,81.56
2023-04-02T23:15:30.535Z,81.58
2023-04-02T23:17:57.115Z,82.00
2023-04-02T23:20:23.641Z,81.78
2023-04-02T23:22:50.245Z,81.75
2023-04-02T23:25:16.782Z,82.05
2023-04-02T23:27:43.236Z,82.13
2023-04-02T23:30:09.934Z,82.22
2023-04-02T23:32:36.436Z,82.63
2023-04-02T23:35:02.949Z,82.82
2023-04-02T23:37:29.376Z,82.43
2023-04-02T23:39:55.855Z,82.74
2023-04-02T23:42:22.293Z,82.81
2023-04-02T23:44:48.703Z,82.62
2023-04-02T23:47:15.440Z,82.38
2023-04-02T23:49:47.507Z,82.45
2023-04-02T23:52:15.409Z,82.42
2023-04-02T23:54:41.868Z,82.68
2023-04-02T23:57:09.421Z,82.53
2023-04-02T23:59:36.218Z,82.55
